Time;durP1;ratioP1;P1;durP2;ratioP2;P2;SDS_P1;SDS_P2;PMS_P1;PMS_P2;Temp;Humidity;BMP_temperature;BMP_pressure;BME280_temperature;BME280_humidity;BME280_pressure;Samples;Min_cycle;Max_cycle;Signal;HPM_P1;HPM_P2
2023/01/28 00:00:30;;;;;;;10.23;8.95;;;3.40;99.90;;;;;;5053155;28;20102;-68
2023/01/28 00:02:56;;;;;;;9.75;8.35;;;3.30;99.90;;;;;;5051860;28;20041;-68
2023/01/28 00:05:24;;;;;;;10.63;8.85;;;3.20;99.90;;;;;;5053224;28;20121;-68
2023/01/28 00:07:50;;;;;;;10.38;7.97;;;3.10;99.90;;;;;;5053107;28;20083;-68
2023/01/28 00:10:16;;;;;;;9.90;8.25;;;3.20;99.90;;;;;;5053220;28;20087;-68
2023/01/28 00:12:42;;;;;;;9.30;7.75;;;3.20;99.90;;;;;;5053106;28;20464;-68
2023/01/28 00:15:09;;;;;;;9.65;7.88;;;3.20;99.90;;;;;;5053051;28;20036;-68
2023/01/28 00:17:35;;;;;;;8.85;7.95;;;3.30;99.90;;;;;;5052738;28;20052;-68
2023/01/28 00:20:04;;;;;;;12.90;9.00;;;3.30;99.90;;;;;;5051799;28;20459;-68
2023/01/28 00:22:31;;;;;;;14.93;10.10;;;3.30;99.90;;;;;;5053320;28;20036;-68
2023/01/28 00:24:56;;;;;;;10.73;9.63;;;3.30;99.90;;;;;;5052758;28;20041;-68
2023/01/28 00:27:22;;;;;;;9.57;8.30;;;3.20;99.90;;;;;;5052785;28;20040;-68
2023/01/28 00:29:48;;;;;;;9.70;8.27;;;3.20;99.90;;;;;;5053026;28;20081;-68
2023/01/28 00:32:14;;;;;;;8.70;7.80;;;3.20;99.90;;;;;;5052899;28;20486;-68
2023/01/28 00:34:39;;;;;;;9.40;7.57;;;3.20;99.90;;;;;;5052705;28;20044;-68
2023/01/28 00:37:05;;;;;;;7.63;5.65;;;3.00;99.90;;;;;;5052504;28;20037;-68
2023/01/28 00:39:31;;;;;;;6.78;5.95;;;3.00;99.90;;;;;;5052554;28;20052;-68
2023/01/28 00:41:56;;;;;;;6.78;5.80;;;3.00;99.90;;;;;;5052590;28;20128;-68
2023/01/28 00:44:22;;;;;;;8.40;6.13;;;3.00;99.90;;;;;;5051385;28;20036;-68
2023/01/28 00:46:47;;;;;;;6.50;5.78;;;3.00;99.90;;;;;;5052139;28;20041;-68
2023/01/28 00:49:13;;;;;;;7.22;5.90;;;3.10;99.90;;;;;;5048750;28;20502;-68
2023/01/28 00:51:38;;;;;;;7.65;6.35;;;3.10;99.90;;;;;;5042938;28;20116;-70
2023/01/28 00:54:04;;;;;;;8.57;6.35;;;3.10;99.90;;;;;;5032382;28;20498;-68
2023/01/28 00:56:30;;;;;;;8.10;5.80;;;3.10;99.90;;;;;;5032463;28;20098;-68
2023/01/28 00:58:56;;;;;;;7.28;6.55;;;3.20;99.90;;;;;;5030728;28;20049;-68
2023/01/28 01:01:23;;;;;;;8.40;6.85;;;3.20;99.90;;;;;;5032524;28;20041;-68
2023/01/28 01:04:02;;;;;;;7.25;6.47;;;3.10;99.90;;;;;;5032267;28;20037;-68
2023/01/28 01:06:37;;;;;;;8.15;6.32;;;3.10;99.90;;;;;;5032058;28;20379;-68
2023/01/28 01:09:06;;;;;;;8.77;6.82;;;3.00;99.90;;;;;;5030628;28;20414;-68
2023/01/28 01:11:31;;;;;;;7.40;6.10;;;3.10;99.90;;;;;;5042572;28;20048;-69
2023/01/28 01:13:58;;;;;;;7.68;6.68;;;3.10;99.90;;;;;;5039823;28;20049;-68
2023/01/28 01:16:26;;;;;;;7.55;6.32;;;3.10;99.90;;;;;;5030748;28;20065;-68
2023/01/28 01:18:53;;;;;;;7.00;5.95;;;3.20;99.90;;;;;;5030215;28;20574;-68
2023/01/28 01:21:20;;;;;;;7.63;6.13;;;3.20;99.90;;;;;;5014512;28;20402;-68
2023/01/28 01:23:46;;;;;;;9.98;6.35;;;3.20;99.90;;;;;;5031371;28;20467;-68
2023/01/28 01:26:13;;;;;;;7.57;5.72;;;3.30;99.90;;;;;;5030741;28;20072;-68
2023/01/28 01:28:38;;;;;;;8.07;6.82;;;3.30;99.90;;;;;;5031671;28;20041;-68
2023/01/28 01:31:07;;;;;;;9.38;6.05;;;3.30;99.90;;;;;;5031794;28;20508;-68
2023/01/28 01:33:33;;;;;;;9.13;7.00;;;3.40;99.90;;;;;;5031628;28;20514;-68
2023/01/28 01:35:59;;;;;;;8.30;6.38;;;3.30;99.90;;;;;;5032041;28;20089;-68
2023/01/28 01:38:25;;;;;;;8.52;6.43;;;3.20;99.90;;;;;;5031544;28;20433;-68
2023/01/28 01:40:51;;;;;;;11.77;6.82;;;3.20;99.90;;;;;;5031803;28;20044;-68
2023/01/28 01:43:19;;;;;;;7.10;6.18;;;3.20;99.90;;;;;;5031715;28;20029;-68
2023/01/28 01:45:49;;;;;;;7.78;6.47;;;3.00;99.90;;;;;;5031721;28;20116;-68
2023/01/28 01:48:23;;;;;;;8.68;5.80;;;2.90;99.90;;;;;;5031184;28;20037;-68
2023/01/28 01:51:05;;;;;;;6.38;5.53;;;3.00;99.90;;;;;;5031757;28;20041;-68
2023/01/28 01:53:31;;;;;;;8.40;6.32;;;3.00;99.90;;;;;;5031570;28;20049;-69
2023/01/28 01:56:02;;;;;;;9.07;6.32;;;3.00;99.90;;;;;;5031499;28;20076;-68
2023/01/28 01:58:32;;;;;;;9.10;6.22;;;3.00;99.90;;;;;;5031182;28;20586;-68
2023/01/28 02:00:58;;;;;;;8.23;6.45;;;3.10;99.90;;;;;;5031655;28;20116;-68
2023/01/28 02:03:49;;;;;;;8.20;6.40;;;3.10;99.90;;;;;;5029932;28;20056;-68
2023/01/28 02:06:14;;;;;;;8.52;6.68;;;3.20;99.90;;;;;;5031471;28;20042;-69
2023/01/28 02:08:41;;;;;;;10.35;7.53;;;3.20;99.90;;;;;;5030024;28;20171;-69
2023/01/28 02:11:09;;;;;;;7.80;6.20;;;3.20;99.90;;;;;;5029794;28;20048;-69
2023/01/28 02:13:39;;;;;;;8.15;6.45;;;3.20;99.90;;;;;;5031135;28;20065;-69
2023/01/28 02:16:06;;;;;;;7.70;6.15;;;3.10;99.90;;;;;;5029884;28;20045;-69
2023/01/28 02:18:32;;;;;;;6.95;5.25;;;3.10;99.90;;;;;;5030778;28;20446;-69
2023/01/28 02:21:30;;;;;;;7.75;6.20;;;3.10;99.90;;;;;;5030010;28;20507;-68
2023/01/28 02:23:58;;;;;;;10.07;6.25;;;3.10;99.90;;;;;;5029915;28;20503;-69
2023/01/28 02:26:42;;;;;;;9.02;6.50;;;2.90;99.90;;;;;;5031342;28;20087;-68
2023/01/28 02:29:27;;;;;;;7.75;5.70;;;2.90;99.90;;;;;;5029696;28;20098;-68
2023/01/28 02:32:19;;;;;;;6.65;5.90;;;2.90;99.90;;;;;;5029795;28;20149;-68
2023/01/28 02:34:59;;;;;;;6.50;5.88;;;2.90;99.90;;;;;;5030571;28;20037;-69
2023/01/28 02:37:32;;;;;;;7.18;5.75;;;2.90;99.90;;;;;;5034737;28;20060;-68
2023/01/28 02:40:02;;;;;;;7.55;5.88;;;2.90;99.90;;;;;;5035084;28;20081;-68
2023/01/28 02:42:32;;;;;;;6.97;5.40;;;3.00;99.90;;;;;;5033621;28;20491;-68
2023/01/28 02:44:58;;;;;;;6.15;5.55;;;3.10;99.90;;;;;;5034733;28;20498;-68
2023/01/28 02:50:12;;;;;;;6.55;5.63;;;3.10;99.90;;;;;;5034858;28;20106;-68
2023/01/28 02:55:48;;;;;;;6.90;5.70;;;3.20;99.90;;;;;;5034783;28;20151;-69
2023/01/28 02:58:17;;;;;;;6.60;5.90;;;3.20;99.90;;;;;;5034386;28;20143;-68
2023/01/28 03:01:05;;;;;;;8.40;6.30;;;3.20;99.90;;;;;;5034612;28;20033;-68
2023/01/28 03:03:36;;;;;;;7.00;5.75;;;3.10;99.90;;;;;;5034259;28;20041;-68
2023/01/28 03:06:07;;;;;;;8.10;5.63;;;3.10;99.90;;;;;;5034412;28;20558;-68
2023/01/28 03:36:48;;;;;;;7.72;6.45;;;3.20;99.90;;;;;;5033910;28;20511;-68
2023/01/28 03:39:14;;;;;;;8.55;5.93;;;3.20;99.90;;;;;;5033862;28;20121;-68
2023/01/28 03:41:40;;;;;;;9.23;5.97;;;3.30;99.90;;;;;;5033909;28;20041;-68
2023/01/28 03:46:50;;;;;;;7.03;5.93;;;3.30;99.90;;;;;;5032897;28;20111;-68
2023/01/28 03:49:16;;;;;;;8.95;7.03;;;3.30;99.90;;;;;;5033728;28;20049;-68
2023/01/28 03:51:41;;;;;;;8.10;5.82;;;3.30;99.90;;;;;;5033614;28;20048;-68
2023/01/28 03:54:07;;;;;;;6.15;5.55;;;3.20;99.90;;;;;;5033633;28;20029;-68
2023/01/28 03:56:36;;;;;;;5.82;5.22;;;3.10;99.90;;;;;;5033592;28;20041;-68
2023/01/28 03:59:05;;;;;;;8.27;5.03;;;3.10;99.90;;;;;;5033087;28;20052;-68
2023/01/28 04:01:31;;;;;;;6.05;4.40;;;3.10;99.90;;;;;;5033432;28;20037;-68
2023/01/28 04:03:56;;;;;;;8.82;5.57;;;3.10;99.90;;;;;;5033339;28;20379;-69
2023/01/28 04:06:22;;;;;;;5.30;4.80;;;3.20;99.90;;;;;;5033501;28;20029;-68
2023/01/28 04:08:51;;;;;;;5.75;4.50;;;3.20;99.90;;;;;;5031933;28;20044;-68
2023/01/28 04:11:20;;;;;;;5.57;4.93;;;3.20;99.90;;;;;;5033312;28;20049;-68
2023/01/28 04:16:15;;;;;;;5.68;3.97;;;3.10;99.90;;;;;;5049319;28;20130;-70
2023/01/28 04:18:41;;;;;;;4.10;3.70;;;3.10;99.90;;;;;;5052965;28;20036;-69
2023/01/28 04:21:07;;;;;;;4.45;4.00;;;3.10;99.90;;;;;;5053158;28;20041;-69
2023/01/28 04:23:33;;;;;;;5.07;4.40;;;3.10;99.90;;;;;;5051825;28;20044;-69
2023/01/28 04:25:59;;;;;;;6.22;4.05;;;3.20;99.90;;;;;;5053222;28;20032;-69
2023/01/28 04:28:24;;;;;;;7.97;3.90;;;3.20;99.90;;;;;;5052899;28;20102;-69
2023/01/28 04:30:51;;;;;;;5.15;4.65;;;3.20;99.90;;;;;;5053142;28;20037;-69
2023/01/28 04:33:16;;;;;;;6.63;4.10;;;3.20;99.90;;;;;;5053147;28;20041;-70
2023/01/28 04:35:42;;;;;;;4.88;4.40;;;3.10;99.90;;;;;;5052970;28;20075;-70
2023/01/28 04:38:07;;;;;;;6.15;4.70;;;3.00;99.90;;;;;;5052655;28;20087;-69
2023/01/28 04:40:33;;;;;;;6.57;4.55;;;3.00;99.90;;;;;;5051998;28;20122;-69
2023/01/28 04:42:58;;;;;;;6.57;4.57;;;3.00;99.90;;;;;;5051615;28;20044;-69
2023/01/28 04:45:24;;;;;;;6.07;4.78;;;2.90;99.90;;;;;;5051544;28;20052;-69
2023/01/28 04:47:50;;;;;;;7.47;5.53;;;3.00;99.90;;;;;;5051669;28;20469;-69
2023/01/28 04:50:16;;;;;;;7.05;5.30;;;3.00;99.90;;;;;;5051474;28;20127;-69
2023/01/28 04:52:41;;;;;;;6.55;5.03;;;3.00;99.90;;;;;;5051510;28;20052;-69
2023/01/28 04:55:07;;;;;;;7.65;5.20;;;3.10;99.90;;;;;;5052646;28;20041;-69
2023/01/28 04:57:33;;;;;;;8.20;5.85;;;3.00;99.90;;;;;;5052161;28;20106;-69
2023/01/28 04:59:58;;;;;;;7.18;5.55;;;3.00;99.90;;;;;;5050820;28;20044;-70
2023/01/28 05:02:24;;;;;;;7.82;5.70;;;3.00;99.90;;;;;;5051271;28;20047;-69
2023/01/28 05:04:49;;;;;;;8.80;5.97;;;2.90;99.90;;;;;;5052631;28;20116;-71
2023/01/28 05:07:15;;;;;;;7.65;6.40;;;3.00;99.90;;;;;;5051213;28;20120;-71
2023/01/28 05:09:40;;;;;;;8.52;5.60;;;3.00;99.90;;;;;;5051480;28;20041;-71
2023/01/28 05:12:06;;;;;;;6.75;5.85;;;3.00;99.90;;;;;;5051130;28;20047;-71
2023/01/28 05:14:32;;;;;;;7.05;6.13;;;3.10;99.90;;;;;;5052094;28;20040;-71
2023/01/28 05:16:57;;;;;;;8.75;7.07;;;3.10;99.90;;;;;;5050728;28;20102;-71
2023/01/28 05:19:23;;;;;;;9.02;6.68;;;3.10;99.90;;;;;;5052416;28;20094;-71
2023/01/28 05:21:48;;;;;;;7.60;6.20;;;3.00;99.90;;;;;;5052358;28;20146;-71
2023/01/28 05:24:14;;;;;;;7.80;6.78;;;2.90;99.90;;;;;;5051205;28;20041;-71
2023/01/28 05:26:40;;;;;;;9.43;6.97;;;2.90;99.90;;;;;;5051655;28;20049;-71
2023/01/28 05:29:06;;;;;;;7.68;6.65;;;2.90;99.90;;;;;;5051212;28;20417;-70
2023/01/28 05:31:32;;;;;;;9.55;6.60;;;2.80;99.90;;;;;;5052443;28;20429;-70
2023/01/28 05:33:57;;;;;;;7.93;6.72;;;2.90;99.90;;;;;;5050720;28;20033;-71
2023/01/28 05:36:23;;;;;;;9.32;6.65;;;2.80;99.90;;;;;;5050976;28;20041;-71
2023/01/28 05:38:48;;;;;;;9.73;6.97;;;2.80;99.90;;;;;;5050458;28;20053;-71
2023/01/28 05:41:14;;;;;;;10.27;7.10;;;2.80;99.90;;;;;;5050947;28;20486;-71
2023/01/28 05:43:39;;;;;;;8.35;6.50;;;2.90;99.90;;;;;;5050818;28;20571;-71
2023/01/28 05:46:05;;;;;;;7.20;6.35;;;2.90;99.90;;;;;;5051876;28;20041;-71
2023/01/28 05:48:30;;;;;;;7.35;6.20;;;2.90;99.90;;;;;;5051650;28;20048;-71
2023/01/28 05:50:56;;;;;;;7.18;6.13;;;2.90;99.90;;;;;;5050881;28;20401;-71
2023/01/28 05:53:22;;;;;;;8.02;6.25;;;2.80;99.90;;;;;;5051822;28;20032;-71
2023/01/28 05:55:54;;;;;;;7.38;5.70;;;2.80;99.90;;;;;;5050675;28;20049;-71
2023/01/28 05:58:20;;;;;;;7.20;6.13;;;2.80;99.90;;;;;;5050063;28;20045;-71
2023/01/28 06:00:46;;;;;;;7.07;5.25;;;2.80;99.90;;;;;;5050400;28;20044;-71
2023/01/28 06:03:12;;;;;;;7.85;7.05;;;2.80;99.90;;;;;;5050636;28;20457;-71
2023/01/28 06:05:37;;;;;;;7.13;6.35;;;2.80;99.90;;;;;;5051704;28;20099;-71
2023/01/28 06:08:04;;;;;;;7.68;6.82;;;2.80;99.90;;;;;;5050158;28;20045;-71
2023/01/28 06:10:29;;;;;;;9.25;6.32;;;2.80;99.90;;;;;;5050119;28;20498;-71
2023/01/28 06:12:55;;;;;;;8.77;6.78;;;2.70;99.90;;;;;;5050391;28;20048;-71
2023/01/28 06:15:21;;;;;;;9.70;6.90;;;2.70;99.90;;;;;;5051397;28;20101;-71
2023/01/28 06:17:46;;;;;;;8.50;6.40;;;2.70;99.90;;;;;;5033318;28;20083;-71
2023/01/28 06:20:12;;;;;;;7.68;6.32;;;2.70;99.90;;;;;;5051504;28;20037;-71
2023/01/28 06:22:37;;;;;;;8.18;6.45;;;2.70;99.90;;;;;;5050256;28;20095;-71
2023/01/28 06:25:03;;;;;;;7.00;6.13;;;2.70;99.90;;;;;;5051438;28;20075;-71
2023/01/28 06:27:29;;;;;;;7.60;6.15;;;2.70;99.90;;;;;;5049987;28;20048;-71
2023/01/28 06:29:54;;;;;;;6.35;5.72;;;2.70;99.90;;;;;;5050266;28;20080;-71
2023/01/28 06:32:20;;;;;;;6.65;5.95;;;2.80;99.90;;;;;;5050084;28;20073;-71
2023/01/28 06:34:46;;;;;;;8.68;6.18;;;2.70;99.90;;;;;;5050250;28;20040;-71
2023/01/28 06:37:12;;;;;;;7.22;5.85;;;2.70;99.90;;;;;;5049986;28;20124;-71
2023/01/28 06:39:38;;;;;;;6.72;5.38;;;2.70;99.90;;;;;;5049943;28;20072;-70
2023/01/28 06:42:03;;;;;;;8.52;6.07;;;2.80;99.90;;;;;;5051939;28;20099;-71
2023/01/28 06:44:29;;;;;;;8.45;6.05;;;2.70;99.90;;;;;;5049987;28;20028;-71
2023/01/28 06:46:54;;;;;;;7.43;5.65;;;2.80;99.90;;;;;;5050960;28;20391;-71
2023/01/28 06:49:20;;;;;;;8.73;5.68;;;2.70;99.90;;;;;;5050339;28;20048;-70
2023/01/28 06:51:49;;;;;;;8.18;6.28;;;2.80;99.90;;;;;;5051329;28;20049;-71
2023/01/28 06:54:15;;;;;;;8.65;5.82;;;2.80;99.90;;;;;;5049788;28;20047;-71
2023/01/28 06:56:40;;;;;;;7.90;6.70;;;2.80;99.90;;;;;;5050183;28;20033;-71
2023/01/28 06:59:06;;;;;;;7.90;6.10;;;2.80;99.90;;;;;;5051089;28;20041;-71
2023/01/28 07:01:32;;;;;;;7.88;6.00;;;2.80;99.90;;;;;;5050199;28;20645;-70
2023/01/28 07:03:58;;;;;;;9.63;6.15;;;2.70;99.90;;;;;;5051104;28;20071;-71
2023/01/28 07:06:23;;;;;;;7.78;6.20;;;2.80;99.90;;;;;;5049982;28;20387;-71
2023/01/28 07:08:49;;;;;;;7.93;6.45;;;2.70;99.90;;;;;;5049743;28;20045;-71
2023/01/28 07:11:15;;;;;;;8.20;6.63;;;2.70;99.90;;;;;;5051529;28;20094;-71
2023/01/28 07:13:42;;;;;;;9.18;6.47;;;2.70;99.90;;;;;;5049781;28;20071;-71
2023/01/28 07:16:08;;;;;;;9.90;6.68;;;2.60;99.90;;;;;;5049789;28;20041;-71
2023/01/28 07:18:33;;;;;;;8.68;7.13;;;2.60;99.90;;;;;;5049552;28;20044;-71
2023/01/28 07:20:59;;;;;;;8.57;6.47;;;2.60;99.90;;;;;;5051023;28;20521;-71
2023/01/28 07:23:24;;;;;;;7.78;6.22;;;2.60;99.90;;;;;;5054110;28;20490;-71
2023/01/28 07:25:50;;;;;;;10.27;7.18;;;2.50;99.90;;;;;;5054478;28;20117;-71
2023/01/28 07:28:20;;;;;;;14.13;7.80;;;2.60;99.90;;;;;;5052887;28;20044;-71
2023/01/28 07:30:47;;;;;;;8.48;6.80;;;2.40;99.90;;;;;;5036489;28;20045;-71
2023/01/28 07:33:13;;;;;;;8.85;6.80;;;2.40;99.90;;;;;;5054498;28;20096;-71
2023/01/28 07:35:39;;;;;;;9.15;7.28;;;2.50;99.90;;;;;;5054396;28;20044;-71
2023/01/28 07:38:04;;;;;;;8.90;6.85;;;2.50;99.90;;;;;;5053874;28;20505;-70
2023/01/28 07:40:30;;;;;;;10.25;7.78;;;2.40;99.90;;;;;;5052895;28;20037;-70
2023/01/28 07:42:55;;;;;;;10.15;7.82;;;2.30;99.90;;;;;;5052946;28;20044;-71
2023/01/28 07:45:24;;;;;;;13.02;9.15;;;2.30;99.90;;;;;;5054210;28;20041;-71
2023/01/28 07:47:57;;;;;;;12.00;8.95;;;2.30;99.90;;;;;;5053784;28;20084;-70
2023/01/28 07:50:24;;;;;;;10.70;7.85;;;2.30;99.90;;;;;;5053835;28;20037;-71
2023/01/28 07:52:49;;;;;;;10.65;7.82;;;2.30;99.90;;;;;;5052573;28;20036;-71
2023/01/28 07:55:15;;;;;;;12.70;8.32;;;2.20;99.90;;;;;;5053936;28;20037;-71
2023/01/28 07:57:52;;;;;;;10.30;8.20;;;2.20;99.90;;;;;;5053482;28;20036;-71
2023/01/28 08:00:19;;;;;;;12.05;8.70;;;2.10;99.90;;;;;;5053756;28;20646;-70
2023/01/28 08:02:46;;;;;;;10.95;8.52;;;2.10;99.90;;;;;;5036105;28;20044;-70
2023/01/28 08:05:14;;;;;;;12.27;8.57;;;2.10;99.90;;;;;;5053552;28;20040;-70
2023/01/28 08:07:40;;;;;;;12.60;10.02;;;2.00;99.90;;;;;;5052067;28;20120;-70
2023/01/28 08:10:06;;;;;;;11.57;8.57;;;2.10;99.90;;;;;;5052511;28;20143;-71
2023/01/28 08:12:31;;;;;;;13.27;8.23;;;2.20;99.90;;;;;;5052566;28;20490;-71
2023/01/28 08:14:57;;;;;;;14.13;8.73;;;2.20;99.90;;;;;;5035647;28;20055;-70
2023/01/28 08:17:22;;;;;;;13.27;9.20;;;2.40;99.90;;;;;;5052143;28;20090;-71
2023/01/28 08:19:48;;;;;;;11.23;9.15;;;2.40;99.90;;;;;;5051992;28;20052;-70
2023/01/28 08:22:13;;;;;;;11.80;8.65;;;2.60;99.90;;;;;;5052335;28;20126;-70
2023/01/28 08:24:39;;;;;;;12.65;8.43;;;2.50;99.90;;;;;;5035201;28;20486;-70
2023/01/28 08:27:04;;;;;;;11.05;8.07;;;2.60;99.90;;;;;;5051926;28;20043;-70
2023/01/28 08:29:31;;;;;;;12.05;8.65;;;2.50;99.90;;;;;;5051892;28;20047;-70
2023/01/28 08:31:56;;;;;;;10.32;7.78;;;2.60;99.90;;;;;;5052163;28;20401;-70
2023/01/28 08:34:22;;;;;;;12.40;9.05;;;2.70;99.90;;;;;;5051509;28;20049;-70
2023/01/28 08:36:47;;;;;;;10.98;8.02;;;2.70;99.90;;;;;;5051722;28;20047;-70
2023/01/28 08:39:13;;;;;;;9.98;7.85;;;2.80;99.90;;;;;;5051703;28;20120;-70
2023/01/28 08:41:38;;;;;;;10.73;8.25;;;2.80;99.90;;;;;;5051969;28;20048;-71
2023/01/28 08:44:04;;;;;;;11.10;8.52;;;2.70;99.90;;;;;;5052944;28;20129;-71
2023/01/28 08:46:29;;;;;;;14.23;8.75;;;2.80;99.90;;;;;;5052790;28;20044;-71
2023/01/28 08:48:55;;;;;;;11.10;8.38;;;2.80;99.90;;;;;;5052396;28;20083;-72
2023/01/28 08:51:20;;;;;;;12.02;8.48;;;2.90;99.90;;;;;;5051511;28;20033;-74
2023/01/28 08:53:46;;;;;;;11.32;8.23;;;3.00;99.90;;;;;;5051371;28;20045;-74
2023/01/28 08:56:13;;;;;;;10.88;8.10;;;3.10;99.90;;;;;;5034951;28;20106;-73
2023/01/28 08:58:39;;;;;;;9.77;7.40;;;3.10;99.90;;;;;;5051027;28;20519;-73
2023/01/28 09:01:05;;;;;;;9.13;6.93;;;3.10;99.90;;;;;;5051631;28;20204;-73
2023/01/28 09:03:31;;;;;;;9.98;7.50;;;3.00;99.90;;;;;;5034619;28;20036;-72
2023/01/28 09:06:02;;;;;;;11.60;7.72;;;2.90;99.90;;;;;;5051184;28;20124;-72
2023/01/28 09:08:27;;;;;;;10.75;7.30;;;2.90;99.90;;;;;;5050839;28;20120;-72
2023/01/28 09:10:57;;;;;;;9.93;7.47;;;2.90;99.90;;;;;;5051201;28;20175;-72
2023/01/28 09:13:23;;;;;;;11.30;7.45;;;2.90;99.90;;;;;;5051064;28;20087;-72
2023/01/28 09:15:50;;;;;;;9.10;7.43;;;2.90;99.90;;;;;;5034461;28;20175;-72
2023/01/28 09:18:16;;;;;;;8.73;6.38;;;2.90;99.90;;;;;;5041331;28;20041;-72
2023/01/28 09:20:41;;;;;;;9.20;7.32;;;2.90;99.90;;;;;;5038349;28;20033;-72
2023/01/28 09:23:07;;;;;;;10.35;7.13;;;2.90;99.90;;;;;;5051505;28;20047;-71
2023/01/28 09:25:35;;;;;;;9.07;6.97;;;3.10;99.90;;;;;;5051228;28;20134;-70
2023/01/28 09:28:00;;;;;;;9.32;6.47;;;3.20;99.90;;;;;;5050361;28;20041;-70
2023/01/28 09:30:27;;;;;;;9.15;6.90;;;3.20;99.90;;;;;;5051039;28;20094;-70
2023/01/28 09:32:54;;;;;;;8.88;6.93;;;3.20;99.90;;;;;;5051020;28;20378;-70
2023/01/28 09:35:20;;;;;;;7.60;6.25;;;3.40;99.90;;;;;;5050989;28;20041;-70
2023/01/28 09:37:46;;;;;;;11.07;6.88;;;3.40;99.90;;;;;;5050501;28;20095;-69
2023/01/28 09:40:27;;;;;;;8.55;6.35;;;3.50;99.90;;;;;;5051276;28;20114;-70
2023/01/28 09:43:03;;;;;;;8.82;6.25;;;3.70;99.90;;;;;;5050856;28;20040;-70
2023/01/28 09:45:42;;;;;;;8.80;6.35;;;3.80;99.90;;;;;;5050089;28;20059;-70
2023/01/28 09:48:15;;;;;;;8.10;6.90;;;3.90;99.90;;;;;;5033637;28;20091;-70
2023/01/28 09:50:46;;;;;;;9.55;7.15;;;4.10;99.90;;;;;;5050662;28;20114;-70
2023/01/28 09:53:27;;;;;;;8.73;5.63;;;4.10;99.90;;;;;;5052189;28;20124;-70
2023/01/28 09:56:24;;;;;;;8.75;6.03;;;4.30;99.90;;;;;;5052213;28;20119;-70
2023/01/28 09:58:50;;;;;;;9.93;6.28;;;4.40;99.90;;;;;;5045337;28;20049;-70
2023/01/28 10:01:41;;;;;;;9.40;6.53;;;4.50;99.90;;;;;;5050150;28;20036;-70
2023/01/28 10:04:22;;;;;;;8.85;6.45;;;4.50;99.90;;;;;;5050094;28;20490;-70
2023/01/28 10:07:00;;;;;;;8.52;6.25;;;4.40;99.90;;;;;;5033598;28;20125;-70
2023/01/28 10:09:43;;;;;;;8.50;6.28;;;4.40;99.90;;;;;;5051614;28;20045;-70
2023/01/28 10:12:42;;;;;;;7.90;6.65;;;4.40;99.90;;;;;;5050286;28;20045;-70
2023/01/28 10:15:46;;;;;;;7.13;5.65;;;4.40;99.90;;;;;;5086712;22;20050;-67
2023/01/28 10:18:12;;;;;;;10.33;6.50;;;4.50;99.90;;;;;;5090701;28;20055;-68
2023/01/28 10:20:50;;;;;;;8.93;5.95;;;4.50;99.90;;;;;;5090681;28;20305;-66
2023/01/28 10:23:57;;;;;;;9.07;6.25;;;4.50;99.90;;;;;;5090806;28;20064;-69
2023/01/28 10:26:36;;;;;;;8.88;6.05;;;4.50;99.90;;;;;;5050364;28;20193;-68
2023/01/28 10:29:10;;;;;;;10.60;6.43;;;4.50;99.90;;;;;;5108162;28;20047;-66
2023/01/28 10:31:42;;;;;;;9.82;6.07;;;4.40;99.90;;;;;;5110378;28;20044;-65
2023/01/28 10:34:11;;;;;;;6.22;5.35;;;4.30;99.90;;;;;;5111437;28;20043;-69
2023/01/28 10:36:37;;;;;;;9.20;7.32;;;4.30;99.90;;;;;;5105365;28;20072;-66
2023/01/28 10:39:03;;;;;;;10.52;6.50;;;4.20;99.90;;;;;;5106415;28;20485;-66
2023/01/28 10:41:28;;;;;;;8.50;6.43;;;4.20;99.90;;;;;;5107650;28;20341;-66
2023/01/28 10:43:56;;;;;;;7.70;6.00;;;4.30;99.90;;;;;;5111630;28;20101;-66
2023/01/28 10:46:28;;;;;;;7.72;6.13;;;4.30;99.90;;;;;;5111442;28;20093;-66
2023/01/28 10:49:17;;;;;;;10.77;6.15;;;4.30;99.90;;;;;;5111301;28;20081;-67
2023/01/28 10:51:43;;;;;;;8.57;6.50;;;4.40;99.90;;;;;;5111408;28;20131;-67
2023/01/28 10:54:20;;;;;;;6.68;5.47;;;4.40;99.90;;;;;;5111476;28;20042;-68
2023/01/28 10:56:48;;;;;;;9.82;5.32;;;4.60;99.90;;;;;;5112366;28;20043;-66
2023/01/28 10:59:26;;;;;;;7.78;5.45;;;4.60;99.90;;;;;;5115103;28;20067;-66
2023/01/28 11:01:54;;;;;;;6.82;5.03;;;4.70;99.90;;;;;;5115228;28;20520;-67
2023/01/28 11:04:31;;;;;;;7.78;5.50;;;4.70;99.90;;;;;;5115109;28;20043;-66
2023/01/28 11:06:59;;;;;;;6.97;5.13;;;4.90;99.90;;;;;;5115094;28;20063;-66
2023/01/28 11:09:31;;;;;;;7.30;5.75;;;4.90;99.90;;;;;;5115223;28;20106;-66
2023/01/28 11:12:09;;;;;;;8.38;5.82;;;5.00;99.90;;;;;;5114922;28;20114;-66
2023/01/28 11:14:34;;;;;;;7.47;5.47;;;5.00;99.90;;;;;;5114746;28;20071;-66
2023/01/28 11:17:00;;;;;;;8.07;5.45;;;5.20;99.90;;;;;;5114893;28;20075;-67
2023/01/28 11:19:37;;;;;;;10.23;5.57;;;5.20;99.90;;;;;;5114938;28;20123;-66
2023/01/28 11:22:03;;;;;;;7.65;5.93;;;5.30;99.90;;;;;;5114972;28;20123;-65
2023/01/28 11:24:32;;;;;;;9.55;6.22;;;5.20;99.90;;;;;;5114704;28;20082;-66
2023/01/28 11:27:15;;;;;;;8.68;6.25;;;5.20;99.90;;;;;;5114454;28;20040;-67
2023/01/28 11:29:41;;;;;;;8.27;5.40;;;5.20;99.90;;;;;;5114795;28;20054;-67
2023/01/28 11:32:17;;;;;;;7.82;5.85;;;5.20;99.90;;;;;;5114876;28;20036;-66
2023/01/28 11:34:49;;;;;;;6.93;5.53;;;5.30;99.90;;;;;;5114724;28;20114;-67
2023/01/28 11:37:15;;;;;;;8.30;6.30;;;5.40;99.90;;;;;;5114273;28;20092;-65
2023/01/28 11:39:41;;;;;;;8.60;5.32;;;5.50;99.90;;;;;;5114372;28;20087;-67
2023/01/28 11:42:16;;;;;;;7.53;5.75;;;5.50;99.90;;;;;;5113055;28;20050;-66
2023/01/28 11:44:41;;;;;;;7.45;6.03;;;5.60;99.90;;;;;;5114580;28;20040;-66
2023/01/28 11:47:14;;;;;;;9.20;5.65;;;5.60;99.90;;;;;;5112833;28;20044;-67
2023/01/28 11:49:52;;;;;;;7.68;5.85;;;5.60;99.90;;;;;;5114649;27;20408;-67
2023/01/28 11:52:47;;;;;;;8.80;5.65;;;5.60;99.90;;;;;;5114227;28;20050;-67
2023/01/28 11:55:37;;;;;;;7.97;5.90;;;5.60;99.90;;;;;;5114406;28;20051;-67
2023/01/28 11:58:24;;;;;;;9.68;6.10;;;5.60;99.90;;;;;;5114042;28;20043;-67
2023/01/28 12:01:01;;;;;;;9.30;6.43;;;5.60;99.90;;;;;;5114298;28;20535;-67
2023/01/28 12:03:45;;;;;;;7.72;5.55;;;5.60;99.90;;;;;;5114401;28;20043;-67
2023/01/28 12:06:29;;;;;;;8.70;6.10;;;5.70;99.90;;;;;;5114120;28;20036;-68
2023/01/28 12:09:23;;;;;;;9.10;6.38;;;5.70;99.90;;;;;;5111938;28;20042;-67
2023/01/28 12:12:10;;;;;;;9.85;6.85;;;5.70;99.90;;;;;;5114313;28;20043;-67
2023/01/28 12:14:59;;;;;;;10.40;6.45;;;5.70;99.90;;;;;;5114003;28;20043;-67
2023/01/28 12:18:02;;;;;;;8.48;6.57;;;5.70;99.90;;;;;;5113897;28;20115;-67
2023/01/28 12:20:37;;;;;;;7.47;6.10;;;5.70;99.90;;;;;;5113934;27;20067;-67
2023/01/28 12:23:18;;;;;;;8.30;6.32;;;5.60;99.90;;;;;;5112678;28;20035;-67
2023/01/28 12:26:01;;;;;;;10.63;7.38;;;5.50;99.90;;;;;;5113473;28;20075;-69
2023/01/28 12:29:04;;;;;;;11.90;7.90;;;5.40;99.90;;;;;;5112460;28;20489;-70
2023/01/28 12:31:52;;;;;;;9.90;7.20;;;5.30;99.90;;;;;;5089546;28;20123;-70
2023/01/28 12:34:39;;;;;;;11.27;8.30;;;5.40;99.90;;;;;;5112825;28;20040;-70
2023/01/28 12:37:14;;;;;;;10.80;7.28;;;5.40;99.90;;;;;;5113589;28;20035;-70
2023/01/28 12:40:17;;;;;;;11.82;7.97;;;5.50;99.90;;;;;;5112565;28;20467;-70
2023/01/28 12:42:59;;;;;;;10.88;7.30;;;5.50;99.90;;;;;;5114103;28;20084;-70
2023/01/28 12:45:24;;;;;;;10.43;7.18;;;5.50;99.90;;;;;;5112302;28;20046;-70
2023/01/28 12:47:56;;;;;;;11.10;8.18;;;5.50;99.90;;;;;;5112143;28;20043;-70
2023/01/28 12:50:27;;;;;;;11.55;7.85;;;5.40;99.90;;;;;;5113638;28;20082;-70
2023/01/28 12:53:00;;;;;;;9.90;7.47;;;5.40;99.90;;;;;;5112411;28;20118;-69
2023/01/28 12:55:39;;;;;;;11.90;7.33;;;5.40;99.90;;;;;;5111904;28;20036;-69
2023/01/28 12:58:15;;;;;;;11.23;7.50;;;5.40;99.90;;;;;;5111853;28;20270;-69
2023/01/28 13:00:50;;;;;;;10.80;7.50;;;5.30;99.90;;;;;;5113407;28;20043;-70
2023/01/28 13:03:47;;;;;;;12.35;8.18;;;5.20;99.90;;;;;;5113344;28;20077;-70
2023/01/28 13:06:41;;;;;;;11.00;7.72;;;5.20;99.90;;;;;;5113371;28;20039;-69
2023/01/28 13:09:12;;;;;;;;;;;5.10;99.90;;;;;;5113353;28;20076;-70
2023/01/28 13:11:38;;;;;;;13.02;6.97;;;5.10;99.90;;;;;;5112329;28;19916;-69
2023/01/28 13:14:04;;;;;;;12.63;8.30;;;5.10;99.90;;;;;;5111979;28;20567;-69
2023/01/28 13:16:30;;;;;;;11.48;7.18;;;5.20;99.90;;;;;;5112948;28;20051;-69
2023/01/28 13:19:22;;;;;;;11.57;7.38;;;5.20;99.90;;;;;;5112301;28;20047;-70
2023/01/28 13:21:48;;;;;;;11.30;8.23;;;5.30;99.90;;;;;;5111600;28;20120;-70
2023/01/28 13:24:14;;;;;;;9.90;6.70;;;5.50;99.90;;;;;;5113171;28;20081;-70
2023/01/28 13:26:40;;;;;;;10.65;7.50;;;5.60;99.90;;;;;;5112155;28;20066;-70
2023/01/28 13:29:13;;;;;;;13.02;7.75;;;5.80;99.90;;;;;;5112661;28;20050;-71
2023/01/28 13:31:44;;;;;;;10.80;7.20;;;5.90;99.90;;;;;;5113135;28;20043;-70
2023/01/28 13:34:34;;;;;;;11.25;7.35;;;5.90;99.90;;;;;;5112412;28;20467;-70
2023/01/28 13:37:22;;;;;;;10.48;7.60;;;6.00;99.90;;;;;;5111835;28;20043;-70
2023/01/28 13:39:50;;;;;;;10.88;7.18;;;6.00;99.90;;;;;;5113415;28;20396;-70
2023/01/28 13:42:27;;;;;;;11.38;7.07;;;6.10;99.90;;;;;;5113283;28;20429;-70
2023/01/28 13:44:54;;;;;;;10.57;7.03;;;6.10;99.90;;;;;;5112456;28;20446;-70
2023/01/28 13:47:30;;;;;;;11.77;7.68;;;6.10;99.90;;;;;;5111995;28;20067;-70
2023/01/28 13:50:06;;;;;;;12.85;8.07;;;6.10;99.90;;;;;;5112005;28;20043;-70